sensor_id;sensor_type;location;lat;lon;timestamp;pressure;altitude;pressure_sealevel;temperature;humidity
35918;BME280;22011;59.912;30.300;2022-12-10T00:02:21;101113.88;;;-0.01;73.64
35918;BME280;22011;59.912;30.300;2022-12-10T00:04:49;101114.59;;;0.01;73.59
35918;BME280;22011;59.912;30.300;2022-12-10T00:07:18;101115.34;;;0.03;73.35
35918;BME280;22011;59.912;30.300;2022-12-10T00:09:46;101121.44;;;0.04;73.26
35918;BME280;22011;59.912;30.300;2022-12-10T00:12:13;101123.88;;;0.07;73.48
35918;BME280;22011;59.912;30.300;2022-12-10T00:14:42;101132.41;;;0.10;73.51
35918;BME280;22011;59.912;30.300;2022-12-10T00:17:10;101131.06;;;0.03;73.02
35918;BME280;22011;59.912;30.300;2022-12-10T00:19:37;101139.69;;;0.05;73.21
35918;BME280;22011;59.912;30.300;2022-12-10T00:22:05;101147.53;;;0.05;73.17
35918;BME280;22011;59.912;30.300;2022-12-10T00:24:32;101148.56;;;0.03;73.36
35918;BME280;22011;59.912;30.300;2022-12-10T00:27:00;101148.66;;;0.01;73.43
35918;BME280;22011;59.912;30.300;2022-12-10T00:29:28;101153.81;;;0.03;73.51
35918;BME280;22011;59.912;30.300;2022-12-10T00:31:56;101154.47;;;0.06;73.51
35918;BME280;22011;59.912;30.300;2022-12-10T00:34:24;101157.25;;;0.03;73.05
35918;BME280;22011;59.912;30.300;2022-12-10T00:36:51;101162.16;;;0.09;73.41
35918;BME280;22011;59.912;30.300;2022-12-10T00:39:20;101170.84;;;0.10;72.89
35918;BME280;22011;59.912;30.300;2022-12-10T00:41:48;101179.91;;;0.04;72.57
35918;BME280;22011;59.912;30.300;2022-12-10T00:44:16;101179.91;;;0.04;72.81
35918;BME280;22011;59.912;30.300;2022-12-10T00:46:44;101175.44;;;0.06;73.01
35918;BME280;22011;59.912;30.300;2022-12-10T00:49:13;101179.66;;;0.09;72.75
35918;BME280;22011;59.912;30.300;2022-12-10T00:51:40;101189.47;;;0.05;72.88
35918;BME280;22011;59.912;30.300;2022-12-10T00:54:08;101192.34;;;0.00;72.38
35918;BME280;22011;59.912;30.300;2022-12-10T00:56:37;101184.59;;;-0.01;72.76
35918;BME280;22011;59.912;30.300;2022-12-10T00:59:05;101188.16;;;-0.02;72.76
35918;BME280;22011;59.912;30.300;2022-12-10T01:01:34;101187.31;;;-0.03;72.91
35918;BME280;22011;59.912;30.300;2022-12-10T01:04:03;101194.41;;;-0.05;72.37
35918;BME280;22011;59.912;30.300;2022-12-10T01:06:35;101191.88;;;-0.06;72.57
35918;BME280;22011;59.912;30.300;2022-12-10T01:09:05;101195.34;;;-0.06;72.78
35918;BME280;22011;59.912;30.300;2022-12-10T01:11:35;101196.84;;;-0.02;72.69
35918;BME280;22011;59.912;30.300;2022-12-10T01:14:06;101197.56;;;0.00;72.83
35918;BME280;22011;59.912;30.300;2022-12-10T01:16:35;101185.44;;;-0.01;72.89
35918;BME280;22011;59.912;30.300;2022-12-10T01:19:02;101193.09;;;0.03;73.19
35918;BME280;22011;59.912;30.300;2022-12-10T01:21:30;101190.31;;;0.06;72.48
35918;BME280;22011;59.912;30.300;2022-12-10T01:24:00;101196.03;;;0.12;72.60
35918;BME280;22011;59.912;30.300;2022-12-10T01:26:29;101193.88;;;0.35;73.13
35918;BME280;22011;59.912;30.300;2022-12-10T01:28:57;101196.03;;;0.12;72.74
35918;BME280;22011;59.912;30.300;2022-12-10T01:31:26;101200.53;;;0.10;72.37
35918;BME280;22011;59.912;30.300;2022-12-10T01:33:55;101192.66;;;0.10;72.08
35918;BME280;22011;59.912;30.300;2022-12-10T01:36:27;101203.97;;;0.11;72.17
35918;BME280;22011;59.912;30.300;2022-12-10T01:38:54;101208.38;;;0.10;72.29
35918;BME280;22011;59.912;30.300;2022-12-10T01:41:26;101214.19;;;0.15;72.34
35918;BME280;22011;59.912;30.300;2022-12-10T01:43:56;101216.25;;;0.10;72.46
35918;BME280;22011;59.912;30.300;2022-12-10T01:46:25;101215.66;;;0.05;72.53
35918;BME280;22011;59.912;30.300;2022-12-10T01:48:53;101212.47;;;0.00;72.39
35918;BME280;22011;59.912;30.300;2022-12-10T01:51:22;101215.19;;;-0.02;72.54
35918;BME280;22011;59.912;30.300;2022-12-10T01:53:50;101214.50;;;-0.05;72.36
35918;BME280;22011;59.912;30.300;2022-12-10T01:56:18;101207.75;;;-0.09;72.69
35918;BME280;22011;59.912;30.300;2022-12-10T01:58:50;101215.63;;;-0.09;72.79
35918;BME280;22011;59.912;30.300;2022-12-10T02:01:28;101216.19;;;-0.04;73.28
35918;BME280;22011;59.912;30.300;2022-12-10T02:04:08;101220.59;;;-0.05;73.14
35918;BME280;22011;59.912;30.300;2022-12-10T02:06:45;101214.50;;;-0.05;73.04
35918;BME280;22011;59.912;30.300;2022-12-10T02:09:19;101209.53;;;-0.10;72.60
35918;BME280;22011;59.912;30.300;2022-12-10T02:11:57;101222.13;;;-0.16;72.64
35918;BME280;22011;59.912;30.300;2022-12-10T02:14:32;101219.59;;;-0.18;72.62
35918;BME280;22011;59.912;30.300;2022-12-10T02:17:05;101218.75;;;-0.18;71.96
35918;BME280;22011;59.912;30.300;2022-12-10T02:19:50;101224.56;;;-0.13;72.78
35918;BME280;22011;59.912;30.300;2022-12-10T02:22:22;101221.97;;;-0.29;72.53
35918;BME280;22011;59.912;30.300;2022-12-10T02:24:52;101213.50;;;-0.34;72.61
35918;BME280;22011;59.912;30.300;2022-12-10T02:27:22;101215.78;;;-0.12;73.36
35918;BME280;22011;59.912;30.300;2022-12-10T02:29:54;101210.81;;;-0.32;72.35
35918;BME280;22011;59.912;30.300;2022-12-10T02:32:25;101209.22;;;-0.35;72.99
35918;BME280;22011;59.912;30.300;2022-12-10T02:35:01;101208.44;;;-0.37;73.21
35918;BME280;22011;59.912;30.300;2022-12-10T02:37:33;101211.06;;;-0.37;72.47
35918;BME280;22011;59.912;30.300;2022-12-10T02:40:05;101213.50;;;-0.34;71.79
35918;BME280;22011;59.912;30.300;2022-12-10T02:42:41;101219.59;;;-0.34;72.34
35918;BME280;22011;59.912;30.300;2022-12-10T02:45:12;101222.63;;;-0.41;72.49
35918;BME280;22011;59.912;30.300;2022-12-10T02:47:40;101221.34;;;-0.50;72.44
35918;BME280;22011;59.912;30.300;2022-12-10T02:50:11;101228.38;;;-0.50;72.62
35918;BME280;22011;59.912;30.300;2022-12-10T02:52:39;101228.47;;;-0.36;73.38
35918;BME280;22011;59.912;30.300;2022-12-10T02:55:10;101239.66;;;-0.66;72.92
35918;BME280;22011;59.912;30.300;2022-12-10T02:57:49;101241.69;;;-0.71;73.19
35918;BME280;22011;59.912;30.300;2022-12-10T03:00:23;101242.56;;;-0.87;73.30
35918;BME280;22011;59.912;30.300;2022-12-10T03:03:18;101253.09;;;-0.89;73.49
35918;BME280;22011;59.912;30.300;2022-12-10T03:05:52;101246.38;;;-0.77;74.13
35918;BME280;22011;59.912;30.300;2022-12-10T03:08:29;101250.13;;;-0.99;73.58
35918;BME280;22011;59.912;30.300;2022-12-10T03:11:03;101254.75;;;-1.04;73.43
35918;BME280;22011;59.912;30.300;2022-12-10T03:13:37;101261.66;;;-1.03;73.59
35918;BME280;22011;59.912;30.300;2022-12-10T03:16:08;101266.25;;;-1.06;73.51
35918;BME280;22011;59.912;30.300;2022-12-10T03:18:37;101261.31;;;-1.12;73.31
35918;BME280;22011;59.912;30.300;2022-12-10T03:21:06;101265.78;;;-1.14;73.54
35918;BME280;22011;59.912;30.300;2022-12-10T03:23:37;101271.09;;;-1.16;73.68
35918;BME280;22011;59.912;30.300;2022-12-10T03:26:08;101269.56;;;-1.20;73.74
35918;BME280;22011;59.912;30.300;2022-12-10T03:28:38;101275.56;;;-1.18;73.81
35918;BME280;22011;59.912;30.300;2022-12-10T03:31:10;101274.78;;;-1.20;74.13
35918;BME280;22011;59.912;30.300;2022-12-10T03:33:40;101278.47;;;-1.24;74.14
35918;BME280;22011;59.912;30.300;2022-12-10T03:36:08;101278.63;;;-1.27;74.27
35918;BME280;22011;59.912;30.300;2022-12-10T03:38:36;101286.00;;;-1.35;74.63
35918;BME280;22011;59.912;30.300;2022-12-10T03:41:04;101287.16;;;-1.41;74.73
35918;BME280;22011;59.912;30.300;2022-12-10T03:43:32;101288.31;;;-1.46;74.90
35918;BME280;22011;59.912;30.300;2022-12-10T03:45:59;101290.94;;;-1.46;75.25
35918;BME280;22011;59.912;30.300;2022-12-10T03:48:28;101289.31;;;-1.49;75.55
35918;BME280;22011;59.912;30.300;2022-12-10T03:50:56;101296.59;;;-1.55;75.50
35918;BME280;22011;59.912;30.300;2022-12-10T03:53:23;101300.91;;;-1.54;75.63
35918;BME280;22011;59.912;30.300;2022-12-10T03:55:51;101303.53;;;-1.54;75.65
35918;BME280;22011;59.912;30.300;2022-12-10T03:58:18;101306.97;;;-1.54;75.57
35918;BME280;22011;59.912;30.300;2022-12-10T04:00:46;101299.06;;;-1.52;75.65
35918;BME280;22011;59.912;30.300;2022-12-10T04:03:14;101300.75;;;-1.51;75.73
35918;BME280;22011;59.912;30.300;2022-12-10T04:05:43;101304.06;;;-1.48;75.67
35918;BME280;22011;59.912;30.300;2022-12-10T04:08:11;101299.75;;;-1.49;75.71
35918;BME280;22011;59.912;30.300;2022-12-10T04:10:38;101297.16;;;-1.49;75.54
35918;BME280;22011;59.912;30.300;2022-12-10T04:13:06;101297.06;;;-1.47;75.54
35918;BME280;22011;59.912;30.300;2022-12-10T04:16:02;101302.00;;;-1.41;75.37
35918;BME280;22011;59.912;30.300;2022-12-10T04:18:48;101308.38;;;-1.47;75.05
35918;BME280;22011;59.912;30.300;2022-12-10T04:21:16;101325.06;;;-1.49;74.95
35918;BME280;22011;59.912;30.300;2022-12-10T04:24:02;101320.34;;;-1.60;74.94
35918;BME280;22011;59.912;30.300;2022-12-10T04:26:46;101325.72;;;-1.63;75.11
35918;BME280;22011;59.912;30.300;2022-12-10T04:29:20;101322.41;;;-1.67;74.94
35918;BME280;22011;59.912;30.300;2022-12-10T04:31:48;101326.94;;;-1.70;74.74
35918;BME280;22011;59.912;30.300;2022-12-10T04:34:16;101319.94;;;-1.70;74.83
35918;BME280;22011;59.912;30.300;2022-12-10T04:36:45;101324.31;;;-1.70;75.22
35918;BME280;22011;59.912;30.300;2022-12-10T04:39:13;101334.06;;;-1.74;75.20
35918;BME280;22011;59.912;30.300;2022-12-10T04:41:43;101333.16;;;-1.73;75.27
35918;BME280;22011;59.912;30.300;2022-12-10T04:44:11;101335.13;;;-1.78;75.00
35918;BME280;22011;59.912;30.300;2022-12-10T04:46:39;101338.59;;;-1.77;75.19
35918;BME280;22011;59.912;30.300;2022-12-10T04:49:06;101346.41;;;-1.77;75.28
35918;BME280;22011;59.912;30.300;2022-12-10T04:51:34;101342.47;;;-1.86;74.73
35918;BME280;22011;59.912;30.300;2022-12-10T04:54:04;101351.31;;;-1.88;74.96
35918;BME280;22011;59.912;30.300;2022-12-10T04:56:32;101355.59;;;-1.87;75.30
35918;BME280;22011;59.912;30.300;2022-12-10T04:59:00;101349.69;;;-1.91;74.96
35918;BME280;22011;59.912;30.300;2022-12-10T05:01:28;101353.13;;;-1.90;74.92
35918;BME280;22011;59.912;30.300;2022-12-10T05:03:58;101353.97;;;-1.90;74.74
35918;BME280;22011;59.912;30.300;2022-12-10T05:06:27;101368.88;;;-1.92;75.01
35918;BME280;22011;59.912;30.300;2022-12-10T05:08:54;101360.41;;;-1.97;74.92
35918;BME280;22011;59.912;30.300;2022-12-10T05:11:26;101356.75;;;-1.93;75.10
35918;BME280;22011;59.912;30.300;2022-12-10T05:13:54;101354.34;;;-1.98;75.00
35918;BME280;22011;59.912;30.300;2022-12-10T05:16:24;101363.94;;;-1.98;75.05
35918;BME280;22011;59.912;30.300;2022-12-10T05:18:53;101358.56;;;-1.95;75.32
35918;BME280;22011;59.912;30.300;2022-12-10T05:21:22;101351.38;;;-1.90;74.92
35918;BME280;22011;59.912;30.300;2022-12-10T05:23:51;101358.94;;;-1.84;75.12
35918;BME280;22011;59.912;30.300;2022-12-10T05:26:19;101349.31;;;-1.83;74.84
35918;BME280;22011;59.912;30.300;2022-12-10T05:28:49;101353.69;;;-1.84;74.72
35918;BME280;22011;59.912;30.300;2022-12-10T05:31:20;101360.84;;;-1.87;75.00
35918;BME280;22011;59.912;30.300;2022-12-10T05:33:48;101360.84;;;-1.87;74.75
35918;BME280;22011;59.912;30.300;2022-12-10T05:36:18;101357.38;;;-1.88;74.68
35918;BME280;22011;59.912;30.300;2022-12-10T05:38:46;101356.59;;;-1.90;74.76
35918;BME280;22011;59.912;30.300;2022-12-10T05:41:15;101367.03;;;-1.90;74.72
35918;BME280;22011;59.912;30.300;2022-12-10T05:43:44;101363.50;;;-1.89;74.78
35918;BME280;22011;59.912;30.300;2022-12-10T05:46:16;101365.97;;;-1.86;74.94
35918;BME280;22011;59.912;30.300;2022-12-10T05:48:44;101374.88;;;-1.90;74.84
35918;BME280;22011;59.912;30.300;2022-12-10T05:51:13;101375.66;;;-1.88;74.68
35918;BME280;22011;59.912;30.300;2022-12-10T05:53:42;101364.91;;;-1.82;74.39
35918;BME280;22011;59.912;30.300;2022-12-10T05:56:11;101374.16;;;-1.75;74.37
35918;BME280;22011;59.912;30.300;2022-12-10T05:58:41;101368.66;;;-1.69;73.84
35918;BME280;22011;59.912;30.300;2022-12-10T06:01:13;101366.88;;;-1.68;73.61
35918;BME280;22011;59.912;30.300;2022-12-10T06:03:42;101370.41;;;-1.50;73.99
35918;BME280;22011;59.912;30.300;2022-12-10T06:06:09;101366.63;;;-1.81;72.88
35918;BME280;22011;59.912;30.300;2022-12-10T06:08:38;101372.97;;;-1.86;73.37
35918;BME280;22011;59.912;30.300;2022-12-10T06:11:10;101373.53;;;-1.80;74.01
35918;BME280;22011;59.912;30.300;2022-12-10T06:13:37;101364.28;;;-1.87;74.11
35918;BME280;22011;59.912;30.300;2022-12-10T06:16:06;101374.88;;;-1.90;74.57
35918;BME280;22011;59.912;30.300;2022-12-10T06:18:33;101377.78;;;-1.96;74.52
35918;BME280;22011;59.912;30.300;2022-12-10T06:21:05;101385.41;;;-1.91;74.92
35918;BME280;22011;59.912;30.300;2022-12-10T06:23:33;101381.28;;;-1.97;74.87
35918;BME280;22011;59.912;30.300;2022-12-10T06:26:03;101386.38;;;-1.94;75.01
35918;BME280;22011;59.912;30.300;2022-12-10T06:28:31;101382.78;;;-1.73;75.75
35918;BME280;22011;59.912;30.300;2022-12-10T06:30:58;101387.16;;;-1.92;75.04
35918;BME280;22011;59.912;30.300;2022-12-10T06:33:26;101386.25;;;-1.91;75.11
35918;BME280;22011;59.912;30.300;2022-12-10T06:35:54;101394.00;;;-1.89;74.83
35918;BME280;22011;59.912;30.300;2022-12-10T06:38:23;101395.00;;;-1.92;74.54
35918;BME280;22011;59.912;30.300;2022-12-10T06:40:50;101389.91;;;-1.95;74.82
35918;BME280;22011;59.912;30.300;2022-12-10T06:43:18;101388.22;;;-1.96;74.80
35918;BME280;22011;59.912;30.300;2022-12-10T06:45:46;101381.16;;;-1.94;75.03
35918;BME280;22011;59.912;30.300;2022-12-10T06:48:13;101381.16;;;-1.94;74.87
35918;BME280;22011;59.912;30.300;2022-12-10T06:50:41;101389.13;;;-1.97;74.36
35918;BME280;22011;59.912;30.300;2022-12-10T06:53:08;101402.19;;;-1.97;74.75
35918;BME280;22011;59.912;30.300;2022-12-10T06:55:38;101401.13;;;-1.93;74.12
35918;BME280;22011;59.912;30.300;2022-12-10T06:58:05;101405.44;;;-1.92;73.93
35918;BME280;22011;59.912;30.300;2022-12-10T07:00:33;101402.06;;;-1.94;73.61
35918;BME280;22011;59.912;30.300;2022-12-10T07:03:00;101401.28;;;-1.96;73.74
35918;BME280;22011;59.912;30.300;2022-12-10T07:05:27;101400.44;;;-1.97;73.19
35918;BME280;22011;59.912;30.300;2022-12-10T07:07:55;101410.16;;;-2.00;73.54
35918;BME280;22011;59.912;30.300;2022-12-10T07:10:23;101411.06;;;-2.01;73.28
35918;BME280;22011;59.912;30.300;2022-12-10T07:12:52;101411.72;;;-1.96;73.33
35918;BME280;22011;59.912;30.300;2022-12-10T07:15:20;101407.41;;;-1.97;73.63
35918;BME280;22011;59.912;30.300;2022-12-10T07:17:50;101413.56;;;-1.98;73.49
35918;BME280;22011;59.912;30.300;2022-12-10T07:20:18;101408.41;;;-2.00;73.80
35918;BME280;22011;59.912;30.300;2022-12-10T07:22:45;101409.38;;;-2.02;74.28
35918;BME280;22011;59.912;30.300;2022-12-10T07:25:13;101418.13;;;-2.03;74.42
35918;BME280;22011;59.912;30.300;2022-12-10T07:27:41;101413.81;;;-2.04;74.58
35918;BME280;22011;59.912;30.300;2022-12-10T07:30:11;101414.59;;;-2.02;74.81
35918;BME280;22011;59.912;30.300;2022-12-10T07:32:38;101411.94;;;-1.82;75.66
35918;BME280;22011;59.912;30.300;2022-12-10T07:35:06;101424.22;;;-2.03;73.55
35918;BME280;22011;59.912;30.300;2022-12-10T07:37:34;101424.13;;;-2.01;73.62
35918;BME280;22011;59.912;30.300;2022-12-10T07:40:02;101423.94;;;-1.97;72.82
35918;BME280;22011;59.912;30.300;2022-12-10T07:42:30;101430.97;;;-1.99;73.39
35918;BME280;22011;59.912;30.300;2022-12-10T07:44:57;101437.63;;;-2.10;73.51
35918;BME280;22011;59.912;30.300;2022-12-10T07:47:26;101436.72;;;-2.09;74.23
35918;BME280;22011;59.912;30.300;2022-12-10T07:49:54;101435.94;;;-2.11;74.27
35918;BME280;22011;59.912;30.300;2022-12-10T07:52:21;101430.91;;;-2.16;74.40
35918;BME280;22011;59.912;30.300;2022-12-10T07:54:49;101434.31;;;-2.14;74.74
35918;BME280;22011;59.912;30.300;2022-12-10T07:57:16;101445.66;;;-2.15;74.41
35918;BME280;22011;59.912;30.300;2022-12-10T07:59:44;101449.25;;;-2.17;74.43
35918;BME280;22011;59.912;30.300;2022-12-10T08:02:11;101453.13;;;-2.26;74.46
35918;BME280;22011;59.912;30.300;2022-12-10T08:04:41;101454.16;;;-2.30;74.57
35918;BME280;22011;59.912;30.300;2022-12-10T08:07:10;101462.00;;;-2.30;74.94
35918;BME280;22011;59.912;30.300;2022-12-10T08:09:38;101459.31;;;-2.28;75.03
35918;BME280;22011;59.912;30.300;2022-12-10T08:12:06;101455.88;;;-2.29;74.48
35918;BME280;22011;59.912;30.300;2022-12-10T08:14:34;101450.19;;;-2.18;74.80
35918;BME280;22011;59.912;30.300;2022-12-10T08:17:01;101450.09;;;-2.17;74.58
35918;BME280;22011;59.912;30.300;2022-12-10T08:19:29;101454.34;;;-2.14;74.22
35918;BME280;22011;59.912;30.300;2022-12-10T08:21:58;101453.44;;;-2.13;74.29
35918;BME280;22011;59.912;30.300;2022-12-10T08:24:26;101446.59;;;-2.16;73.55
35918;BME280;22011;59.912;30.300;2022-12-10T08:26:53;101452.53;;;-2.12;73.92
35918;BME280;22011;59.912;30.300;2022-12-10T08:29:21;101442.00;;;-2.11;73.63
35918;BME280;22011;59.912;30.300;2022-12-10T08:31:48;101450.31;;;-2.03;73.95
35918;BME280;22011;59.912;30.300;2022-12-10T08:34:17;101443.47;;;-2.05;73.02
35918;BME280;22011;59.912;30.300;2022-12-10T08:36:46;101457.44;;;-2.06;72.79
35918;BME280;22011;59.912;30.300;2022-12-10T08:39:15;101456.53;;;-2.05;73.37
35918;BME280;22011;59.912;30.300;2022-12-10T08:41:42;101456.69;;;-2.08;73.38
35918;BME280;22011;59.912;30.300;2022-12-10T08:44:10;101456.69;;;-2.08;73.67
35918;BME280;22011;59.912;30.300;2022-12-10T08:46:39;101453.00;;;-2.04;74.25
35918;BME280;22011;59.912;30.300;2022-12-10T08:49:06;101453.84;;;-2.04;74.22
35918;BME280;22011;59.912;30.300;2022-12-10T08:51:34;101459.66;;;-1.97;74.50
35918;BME280;22011;59.912;30.300;2022-12-10T08:54:02;101465.66;;;-1.95;74.35
35918;BME280;22011;59.912;30.300;2022-12-10T08:56:31;101462.75;;;-1.89;74.47
35918;BME280;22011;59.912;30.300;2022-12-10T08:59:00;101464.59;;;-1.91;74.15
35918;BME280;22011;59.912;30.300;2022-12-10T09:01:27;101455.97;;;-1.93;74.51
35918;BME280;22011;59.912;30.300;2022-12-10T09:03:55;101464.59;;;-1.91;74.42
35918;BME280;22011;59.912;30.300;2022-12-10T09:06:23;101462.81;;;-1.90;74.46
35918;BME280;22011;59.912;30.300;2022-12-10T09:08:51;101462.06;;;-1.92;74.32
35918;BME280;22011;59.912;30.300;2022-12-10T09:11:21;101465.56;;;-1.93;73.42
35918;BME280;22011;59.912;30.300;2022-12-10T09:13:51;101463.88;;;-1.94;73.04
35918;BME280;22011;59.912;30.300;2022-12-10T09:16:19;101467.47;;;-1.97;73.51
35918;BME280;22011;59.912;30.300;2022-12-10T09:18:46;101466.44;;;-1.93;73.02
35918;BME280;22011;59.912;30.300;2022-12-10T09:21:16;101467.91;;;-1.87;73.48
35918;BME280;22011;59.912;30.300;2022-12-10T09:23:43;101466.94;;;-1.85;73.79
35918;BME280;22011;59.912;30.300;2022-12-10T09:26:14;101466.00;;;-1.84;73.82
35918;BME280;22011;59.912;30.300;2022-12-10T09:28:42;101469.28;;;-1.60;74.53
35918;BME280;22011;59.912;30.300;2022-12-10T09:31:11;101466.88;;;-1.83;73.25
35918;BME280;22011;59.912;30.300;2022-12-10T09:33:40;101467.13;;;-1.89;73.11
35918;BME280;22011;59.912;30.300;2022-12-10T09:36:09;101464.88;;;-1.97;73.35
35918;BME280;22011;59.912;30.300;2022-12-10T09:38:39;101467.22;;;-1.91;73.26
35918;BME280;22011;59.912;30.300;2022-12-10T09:41:20;101468.06;;;-1.72;73.51
35918;BME280;22011;59.912;30.300;2022-12-10T09:43:59;101473.38;;;-1.73;73.26
35918;BME280;22011;59.912;30.300;2022-12-10T09:46:42;101465.25;;;-1.67;73.47
35918;BME280;22011;59.912;30.300;2022-12-10T09:49:20;101470.53;;;-1.69;73.03
35918;BME280;22011;59.912;30.300;2022-12-10T09:51:54;101463.75;;;-1.73;73.27
35918;BME280;22011;59.912;30.300;2022-12-10T09:54:25;101473.44;;;-1.75;73.46
35918;BME280;22011;59.912;30.300;2022-12-10T09:56:55;101465.59;;;-1.75;73.22
35918;BME280;22011;59.912;30.300;2022-12-10T09:59:29;101474.50;;;-1.79;72.98
35918;BME280;22011;59.912;30.300;2022-12-10T10:02:03;101472.78;;;-1.80;73.51
35918;BME280;22011;59.912;30.300;2022-12-10T10:04:40;101476.75;;;-1.90;73.85
35918;BME280;22011;59.912;30.300;2022-12-10T10:07:10;101478.44;;;-1.89;74.01
35918;BME280;22011;59.912;30.300;2022-12-10T10:09:42;101471.78;;;-1.96;74.38
35918;BME280;22011;59.912;30.300;2022-12-10T10:12:12;101477.72;;;-1.92;74.05
35918;BME280;22011;59.912;30.300;2022-12-10T10:14:41;101474.13;;;-1.90;74.44
35918;BME280;22011;59.912;30.300;2022-12-10T10:17:16;101473.78;;;-1.82;74.20
35918;BME280;22011;59.912;30.300;2022-12-10T10:19:46;101480.25;;;-1.91;73.92
35918;BME280;22011;59.912;30.300;2022-12-10T10:22:15;101479.56;;;-1.94;73.66
35918;BME280;22011;59.912;30.300;2022-12-10T10:24:45;101482.94;;;-1.92;74.46
35918;BME280;22011;59.912;30.300;2022-12-10T10:27:14;101482.81;;;-1.89;74.21
35918;BME280;22011;59.912;30.300;2022-12-10T10:29:43;101485.22;;;-1.85;74.65
35918;BME280;22011;59.912;30.300;2022-12-10T10:32:15;101491.00;;;-1.78;74.99
35918;BME280;22011;59.912;30.300;2022-12-10T10:34:44;101490.09;;;-1.77;74.96
35918;BME280;22011;59.912;30.300;2022-12-10T10:37:16;101494.91;;;-1.68;74.94
35918;BME280;22011;59.912;30.300;2022-12-10T10:39:49;101487.13;;;-1.70;74.02
35918;BME280;22011;59.912;30.300;2022-12-10T10:42:27;101491.38;;;-1.67;73.85
35918;BME280;22011;59.912;30.300;2022-12-10T10:44:55;101495.25;;;-1.76;73.42
35918;BME280;22011;59.912;30.300;2022-12-10T10:47:27;101496.03;;;-1.74;73.78
35918;BME280;22011;59.912;30.300;2022-12-10T10:49:55;101500.63;;;-1.79;73.65
35918;BME280;22011;59.912;30.300;2022-12-10T10:52:22;101503.59;;;-1.68;73.62
35918;BME280;22011;59.912;30.300;2022-12-10T10:54:54;101499.94;;;-1.63;73.60
35918;BME280;22011;59.912;30.300;2022-12-10T10:57:24;101504.09;;;-1.59;73.48
35918;BME280;22011;59.912;30.300;2022-12-10T10:59:54;101499.84;;;-1.62;72.60
35918;BME280;22011;59.912;30.300;2022-12-10T11:02:28;101505.22;;;-1.65;72.43
35918;BME280;22011;59.912;30.300;2022-12-10T11:04:57;101506.22;;;-1.68;72.43
35918;BME280;22011;59.912;30.300;2022-12-10T11:07:33;101504.09;;;-1.59;72.61
35918;BME280;22011;59.912;30.300;2022-12-10T11:10:02;101505.28;;;-1.67;72.65
35918;BME280;22011;59.912;30.300;2022-12-10T11:12:34;101497.31;;;-1.63;72.63
35918;BME280;22011;59.912;30.300;2022-12-10T11:15:27;101497.94;;;-1.58;72.31
35918;BME280;22011;59.912;30.300;2022-12-10T11:17:57;101493.28;;;-1.71;72.96
35918;BME280;22011;59.912;30.300;2022-12-10T11:20:27;101489.75;;;-1.70;73.55
35918;BME280;22011;59.912;30.300;2022-12-10T11:22:56;101492.88;;;-1.61;73.85
35918;BME280;22011;59.912;30.300;2022-12-10T11:25:38;101491.31;;;-1.47;74.34
35918;BME280;22011;59.912;30.300;2022-12-10T11:28:22;101494.91;;;-1.49;74.24
35918;BME280;22011;59.912;30.300;2022-12-10T11:31:01;101497.53;;;-1.49;72.80
35918;BME280;22011;59.912;30.300;2022-12-10T11:33:36;101501.06;;;-1.50;73.12
35918;BME280;22011;59.912;30.300;2022-12-10T11:36:18;101494.00;;;-1.48;73.54
35918;BME280;22011;59.912;30.300;2022-12-10T11:38:52;101494.16;;;-1.51;72.48
35918;BME280;22011;59.912;30.300;2022-12-10T11:41:34;101491.25;;;-1.45;72.96
35918;BME280;22011;59.912;30.300;2022-12-10T11:44:15;101488.44;;;-1.41;72.77
35918;BME280;22011;59.912;30.300;2022-12-10T11:47:06;101494.84;;;-1.29;72.48
35918;BME280;22011;59.912;30.300;2022-12-10T11:49:47;101492.66;;;-1.38;71.69
35918;BME280;22011;59.912;30.300;2022-12-10T11:52:33;101491.25;;;-1.45;71.85
35918;BME280;22011;59.912;30.300;2022-12-10T11:55:17;101497.69;;;-1.52;72.19
35918;BME280;22011;59.912;30.300;2022-12-10T11:57:52;101507.34;;;-1.54;72.17
35918;BME280;22011;59.912;30.300;2022-12-10T12:00:23;101501.34;;;-1.56;72.13
35918;BME280;22011;59.912;30.300;2022-12-10T12:03:05;101504.47;;;-1.48;72.76
35918;BME280;22011;59.912;30.300;2022-12-10T12:05:48;101506.78;;;-1.42;73.02
35918;BME280;22011;59.912;30.300;2022-12-10T12:08:24;101508.00;;;-1.49;73.21
35918;BME280;22011;59.912;30.300;2022-12-10T12:11:04;101502.47;;;-1.43;73.50
35918;BME280;22011;59.912;30.300;2022-12-10T12:13:41;101501.56;;;-1.42;73.67
35918;BME280;22011;59.912;30.300;2022-12-10T12:16:11;101504.97;;;-1.40;73.83
35918;BME280;22011;59.912;30.300;2022-12-10T12:18:45;101508.22;;;-1.35;72.90
35918;BME280;22011;59.912;30.300;2022-12-10T12:21:16;101504.75;;;-1.36;72.57
35918;BME280;22011;59.912;30.300;2022-12-10T12:23:49;101508.06;;;-1.32;72.79
35918;BME280;22011;59.912;30.300;2022-12-10T12:26:23;101505.44;;;-1.32;73.27
35918;BME280;22011;59.912;30.300;2022-12-10T12:28:56;101510.69;;;-1.32;73.29
35918;BME280;22011;59.912;30.300;2022-12-10T12:31:31;101517.47;;;-1.28;72.72
35918;BME280;22011;59.912;30.300;2022-12-10T12:34:05;101527.22;;;-1.32;72.83
35918;BME280;22011;59.912;30.300;2022-12-10T12:36:35;101530.69;;;-1.31;72.50
35918;BME280;22011;59.912;30.300;2022-12-10T12:39:11;101538.09;;;-1.22;73.15
35918;BME280;22011;59.912;30.300;2022-12-10T12:41:45;101539.44;;;-1.32;72.95
35918;BME280;22011;59.912;30.300;2022-12-10T12:44:21;101534.34;;;-1.35;73.19
35918;BME280;22011;59.912;30.300;2022-12-10T12:46:51;101544.16;;;-1.40;72.90
35918;BME280;22011;59.912;30.300;2022-12-10T12:49:22;101548.34;;;-1.36;72.91
35918;BME280;22011;59.912;30.300;2022-12-10T12:51:56;101548.19;;;-1.33;73.13
35918;BME280;22011;59.912;30.300;2022-12-10T12:54:25;101547.50;;;-1.37;73.64
35918;BME280;22011;59.912;30.300;2022-12-10T12:56:59;101549.88;;;-1.32;73.59
35918;BME280;22011;59.912;30.300;2022-12-10T12:59:38;101551.44;;;-1.28;73.78